< < Back
Terminal Aerodrome Forecast


Current Version              Previous Versions:   1  2  3  4  5  6  7  8  9  

Terminal Aerodrome Forecast

831
FTUS42 KFFC 272320
TAFAHN
TAF
KAHN 272320Z 2800/2824 32007KT P6SM SKC
     FM280600 32005KT P6SM SKC
     FM281200 30005KT P6SM SKC
     FM282100 25006KT P6SM SKC=



Latest METAR

767
SAUS70 KWBC 281000
MTRAHN
METAR KAHN 280951Z AUTO 31005KT 10SM CLR M01/M06 A3034 RMK AO2 SLP282
T10111056


USA.gov is the U.S. government's official web portal to all federal, state and local government web resources and services.